createdAt,value
2018-08-14T00:00:40.581Z,2.90
2018-08-14T00:03:17.296Z,3.07
2018-08-14T00:05:46.707Z,2.47
2018-08-14T00:08:15.593Z,2.70
2018-08-14T00:10:44.123Z,3.27
2018-08-14T00:13:14.088Z,3.98
2018-08-14T00:15:44.376Z,3.40
2018-08-14T00:18:12.875Z,2.53
2018-08-14T00:20:41.368Z,3.35
2018-08-14T00:23:09.852Z,2.50
2018-08-14T00:25:38.316Z,3.70
2018-08-14T00:28:07.948Z,3.83
2018-08-14T00:30:36.451Z,3.60
2018-08-14T00:33:04.960Z,3.17
2018-08-14T00:35:33.464Z,3.70
2018-08-14T00:38:01.960Z,4.43
2018-08-14T00:40:31.271Z,3.50
2018-08-14T00:43:01.798Z,3.43
2018-08-14T00:45:30.323Z,2.93
2018-08-14T00:47:58.848Z,3.90
2018-08-14T00:50:27.364Z,3.43
2018-08-14T00:52:56.079Z,2.53
2018-08-14T00:55:24.832Z,4.70
2018-08-14T00:57:53.560Z,3.67
2018-08-14T01:00:28.422Z,4.20
2018-08-14T01:02:57.145Z,4.30
2018-08-14T01:05:25.687Z,3.77
2018-08-14T01:07:56.957Z,4.30
2018-08-14T01:10:25.426Z,3.97
2018-08-14T01:12:57.367Z,4.50
2018-08-14T01:15:28.515Z,4.20
2018-08-14T01:17:57.766Z,3.67
2018-08-14T01:20:27.811Z,3.77
2018-08-14T01:22:56.313Z,4.27
2018-08-14T01:25:24.810Z,4.47
2018-08-14T01:27:54.254Z,4.03
2018-08-14T01:30:31.255Z,4.20
2018-08-14T01:32:59.784Z,3.80
2018-08-14T01:35:28.531Z,4.77
2018-08-14T01:37:57.203Z,4.30
2018-08-14T01:40:25.958Z,4.00
2018-08-14T01:42:54.445Z,5.03
2018-08-14T01:45:22.958Z,3.63
2018-08-14T01:47:51.588Z,4.20
2018-08-14T01:50:22.271Z,4.45
2018-08-14T01:52:50.894Z,3.70
2018-08-14T01:55:20.617Z,3.70
2018-08-14T01:57:49.591Z,3.97
2018-08-14T02:00:19.484Z,3.53
2018-08-14T02:02:48.088Z,4.47
2018-08-14T02:05:16.556Z,5.40
2018-08-14T02:07:45.412Z,4.50
2018-08-14T02:10:15.580Z,4.90
2018-08-14T02:12:44.020Z,5.17
2018-08-14T02:15:15.102Z,4.30
2018-08-14T02:17:43.590Z,4.20
2018-08-14T02:20:16.556Z,4.83
2018-08-14T02:22:45.495Z,5.20
2018-08-14T02:25:13.991Z,5.33
2018-08-14T02:27:43.300Z,3.87
2018-08-14T02:30:11.755Z,4.70
2018-08-14T02:32:40.880Z,4.50
2018-08-14T02:35:10.791Z,4.40
2018-08-14T02:37:39.285Z,4.77
2018-08-14T02:40:11.061Z,4.70
2018-08-14T02:42:39.517Z,5.30
2018-08-14T02:45:08.983Z,5.60
2018-08-14T02:47:37.406Z,5.27
2018-08-14T02:50:06.963Z,5.27
2018-08-14T02:52:35.627Z,5.77
2018-08-14T02:55:04.208Z,7.13
2018-08-14T02:57:32.659Z,6.30
2018-08-14T03:00:01.245Z,4.80
2018-08-14T03:02:29.747Z,5.23
2018-08-14T03:04:58.228Z,5.93
2018-08-14T03:07:26.959Z,7.10
2018-08-14T03:09:55.592Z,8.23
2018-08-14T03:12:24.041Z,6.70
2018-08-14T03:15:00.286Z,7.20
2018-08-14T03:17:29.934Z,7.53
2018-08-14T03:19:59.480Z,5.33
2018-08-14T03:22:27.894Z,6.10
2018-08-14T03:24:56.688Z,6.43
2018-08-14T03:27:25.171Z,5.93
2018-08-14T03:29:53.676Z,6.28
2018-08-14T03:32:22.173Z,7.62
2018-08-14T03:34:50.608Z,8.00
2018-08-14T03:37:19.380Z,6.43
2018-08-14T03:39:48.163Z,6.60
2018-08-14T03:42:18.337Z,7.17
2018-08-14T03:44:46.780Z,7.57
2018-08-14T03:47:15.483Z,8.80
2018-08-14T03:49:43.915Z,9.00
2018-08-14T03:52:12.387Z,8.60
2018-08-14T03:54:40.850Z,8.97
2018-08-14T03:57:09.345Z,9.23
2018-08-14T03:59:37.799Z,7.90
2018-08-14T04:02:06.603Z,8.40
2018-08-14T04:04:35.097Z,8.33
2018-08-14T04:07:03.789Z,8.63
2018-08-14T04:09:32.256Z,6.97
2018-08-14T04:12:00.974Z,8.80
2018-08-14T04:14:29.467Z,9.30
2018-08-14T04:16:57.910Z,8.40
2018-08-14T04:19:26.387Z,9.70
2018-08-14T04:21:54.817Z,9.13
2018-08-14T04:24:23.230Z,10.60
2018-08-14T04:26:51.668Z,11.20
2018-08-14T04:29:20.146Z,11.17
2018-08-14T04:31:48.596Z,9.73
2018-08-14T04:34:17.046Z,12.57
2018-08-14T04:36:45.538Z,12.10
2018-08-14T04:39:14.007Z,13.10
2018-08-14T04:41:42.497Z,12.58
2018-08-14T04:44:10.926Z,10.30
2018-08-14T04:46:39.443Z,12.80
2018-08-14T04:49:08.022Z,11.63
2018-08-14T04:51:36.511Z,10.08
2018-08-14T04:54:04.972Z,11.23
2018-08-14T04:56:33.471Z,11.30
2018-08-14T04:59:02.091Z,10.63
2018-08-14T05:01:30.663Z,12.23
2018-08-14T05:03:59.150Z,11.60
2018-08-14T05:06:27.850Z,11.60
2018-08-14T05:08:56.431Z,9.90
2018-08-14T05:11:25.060Z,11.10
2018-08-14T05:13:57.048Z,12.23
2018-08-14T05:16:25.627Z,11.07
2018-08-14T05:18:54.759Z,12.47
2018-08-14T05:21:23.290Z,12.47
2018-08-14T05:23:51.803Z,11.00
2018-08-14T05:26:20.508Z,8.70
2018-08-14T05:28:49.180Z,11.77
2018-08-14T05:31:17.623Z,11.23
2018-08-14T05:33:46.883Z,10.90
2018-08-14T05:36:15.509Z,10.90
2018-08-14T05:38:44.044Z,9.77
2018-08-14T05:41:12.627Z,10.13
2018-08-14T05:43:41.128Z,12.30
2018-08-14T05:46:09.650Z,10.27
2018-08-14T05:48:38.259Z,11.00
2018-08-14T05:51:06.733Z,9.00
2018-08-14T05:53:35.524Z,9.40
2018-08-14T05:56:04.254Z,10.83
2018-08-14T05:58:32.737Z,9.30
2018-08-14T06:01:01.187Z,9.00
2018-08-14T06:03:29.654Z,8.80
2018-08-14T06:05:58.160Z,7.87
2018-08-14T06:08:26.682Z,8.70
2018-08-14T06:10:55.192Z,6.97
2018-08-14T06:13:23.640Z,7.20
2018-08-14T06:15:52.154Z,7.33
2018-08-14T06:18:20.593Z,8.27
2018-08-14T06:20:49.090Z,7.10
2018-08-14T06:23:17.577Z,6.40
2018-08-14T06:25:46.033Z,5.78
2018-08-14T06:28:14.479Z,4.57
2018-08-14T06:30:42.926Z,4.73
2018-08-14T06:33:10.314Z,5.00
2018-08-14T06:35:38.790Z,4.77
2018-08-14T06:38:38.185Z,5.50
2018-08-14T06:41:07.069Z,4.63
2018-08-14T06:43:35.583Z,5.77
2018-08-14T06:46:04.116Z,5.07
2018-08-14T06:48:32.850Z,4.60
2018-08-14T06:51:01.346Z,3.67
2018-08-14T06:53:29.832Z,4.47
2018-08-14T06:55:58.558Z,4.10
2018-08-14T06:58:27.079Z,5.30
2018-08-14T07:00:55.572Z,4.17
2018-08-14T07:03:24.075Z,4.93
2018-08-14T07:05:52.556Z,4.27
2018-08-14T07:08:21.043Z,4.40
2018-08-14T07:10:49.539Z,3.65
2018-08-14T07:13:18.144Z,3.95
2018-08-14T07:15:46.616Z,4.40
2018-08-14T07:18:15.107Z,5.50
2018-08-14T07:20:43.989Z,4.67
2018-08-14T07:23:12.439Z,4.60
2018-08-14T07:25:40.912Z,4.47
2018-08-14T07:28:09.737Z,4.23
2018-08-14T07:30:38.164Z,4.67
2018-08-14T07:33:06.831Z,4.77
2018-08-14T07:35:35.283Z,4.67
2018-08-14T07:38:03.752Z,4.67
2018-08-14T07:40:32.307Z,4.70
2018-08-14T07:43:00.774Z,4.12
2018-08-14T07:45:33.216Z,4.77
2018-08-14T07:48:01.975Z,5.08
2018-08-14T07:50:30.467Z,5.20
2018-08-14T07:52:58.958Z,5.00
2018-08-14T07:55:27.397Z,4.80
2018-08-14T07:57:55.997Z,5.80
2018-08-14T08:00:24.475Z,5.77
2018-08-14T08:02:53.468Z,5.25
2018-08-14T08:05:22.403Z,6.47
2018-08-14T08:07:51.498Z,6.67
2018-08-14T08:10:20.033Z,6.45
2018-08-14T08:12:49.067Z,6.10
2018-08-14T08:15:18.685Z,6.30
2018-08-14T08:17:47.954Z,6.10
2018-08-14T08:20:28.658Z,6.67
2018-08-14T08:22:57.486Z,5.85
2018-08-14T08:25:27.263Z,7.63
2018-08-14T08:27:56.580Z,6.90
2018-08-14T08:30:25.440Z,7.50
2018-08-14T08:32:53.997Z,6.97
2018-08-14T08:35:22.534Z,7.33
2018-08-14T08:37:51.088Z,7.20
2018-08-14T08:40:19.808Z,8.23
2018-08-14T08:42:48.297Z,7.60
2018-08-14T08:45:16.871Z,7.90
2018-08-14T08:47:45.360Z,6.47
2018-08-14T08:50:15.008Z,7.63
2018-08-14T08:52:44.068Z,8.70
2018-08-14T08:55:15.959Z,6.62
2018-08-14T08:57:44.601Z,6.07
2018-08-14T09:00:14.845Z,7.62
2018-08-14T09:02:43.450Z,6.20
2018-08-14T09:05:14.580Z,8.47
2018-08-14T09:07:43.128Z,7.87
2018-08-14T09:10:12.447Z,7.83
2018-08-14T09:12:41.910Z,9.17
2018-08-14T09:15:11.176Z,8.33
2018-08-14T09:17:41.097Z,8.83
2018-08-14T09:20:11.432Z,9.30
2018-08-14T09:22:39.910Z,8.00
2018-08-14T09:25:11.738Z,9.40
2018-08-14T09:27:41.059Z,8.97
2018-08-14T09:30:12.022Z,8.87
2018-08-14T09:32:40.887Z,7.90
2018-08-14T09:35:09.707Z,6.70
2018-08-14T09:37:39.722Z,8.43
2018-08-14T09:40:10.077Z,7.17
2018-08-14T09:42:38.561Z,8.00
2018-08-14T09:45:07.593Z,6.53
2018-08-14T09:47:36.412Z,5.90
2018-08-14T09:50:11.431Z,5.80
2018-08-14T09:52:40.024Z,5.63
2018-08-14T09:55:08.518Z,5.50
2018-08-14T09:57:37.332Z,5.67
2018-08-14T10:00:09.126Z,5.47
2018-08-14T10:02:42.798Z,5.33
2018-08-14T10:05:16.727Z,4.92
2018-08-14T10:07:50.488Z,5.83
2018-08-14T10:10:18.982Z,5.20
2018-08-14T10:12:47.871Z,4.33
2018-08-14T10:15:16.616Z,4.87
2018-08-14T10:17:45.139Z,5.00
2018-08-14T10:20:13.554Z,4.50
2018-08-14T10:22:42.094Z,4.77
2018-08-14T10:25:10.548Z,4.30
2018-08-14T10:27:38.986Z,4.43
2018-08-14T10:30:12.406Z,4.53
2018-08-14T10:32:41.085Z,3.67
2018-08-14T10:35:09.611Z,3.30
2018-08-14T10:37:38.107Z,4.20
2018-08-14T10:40:10.282Z,3.20
2018-08-14T10:42:39.016Z,3.10
2018-08-14T10:45:10.433Z,4.08
2018-08-14T10:47:39.158Z,3.30
2018-08-14T10:50:08.889Z,3.53
2018-08-14T10:52:37.387Z,4.60
2018-08-14T10:55:06.460Z,2.93
2018-08-14T10:57:34.940Z,3.90
2018-08-14T11:00:03.443Z,3.57
2018-08-14T11:02:31.932Z,2.90
2018-08-14T11:05:00.475Z,1.93
2018-08-14T11:07:28.888Z,2.37
2018-08-14T11:09:57.312Z,2.60
2018-08-14T11:12:25.795Z,1.50
2018-08-14T11:14:54.294Z,1.23
2018-08-14T11:17:22.760Z,1.10
2018-08-14T11:19:51.193Z,1.40
2018-08-14T11:22:19.632Z,1.07
2018-08-14T11:24:48.139Z,1.00
2018-08-14T11:27:16.594Z,1.00
2018-08-14T11:29:45.036Z,1.00
2018-08-14T11:32:13.523Z,1.00
2018-08-14T11:34:41.991Z,1.50
2018-08-14T11:37:10.506Z,1.00
2018-08-14T11:39:39.138Z,1.37
2018-08-14T11:42:07.612Z,1.00
2018-08-14T11:44:36.417Z,1.30
2018-08-14T11:47:04.851Z,1.72
2018-08-14T11:49:33.283Z,1.45
2018-08-14T11:52:01.695Z,1.60
2018-08-14T11:54:30.457Z,1.10
2018-08-14T11:56:58.923Z,1.00
2018-08-14T11:59:27.347Z,1.10
2018-08-14T12:01:55.904Z,1.20
2018-08-14T12:04:24.287Z,1.13
2018-08-14T12:06:52.776Z,1.20
2018-08-14T12:09:21.278Z,1.13
2018-08-14T12:11:49.715Z,1.50
2018-08-14T12:14:18.150Z,1.40
2018-08-14T12:16:46.575Z,1.30
2018-08-14T12:19:15.011Z,1.33
2018-08-14T12:21:43.488Z,1.90
2018-08-14T12:24:11.891Z,1.37
2018-08-14T12:26:40.371Z,1.60
2018-08-14T12:29:08.928Z,1.20
2018-08-14T12:31:37.403Z,1.43
2018-08-14T12:34:05.816Z,1.43
2018-08-14T12:36:34.211Z,1.20
2018-08-14T12:39:02.755Z,1.17
2018-08-14T12:41:31.187Z,1.25
2018-08-14T12:43:59.613Z,2.03
2018-08-14T12:46:28.086Z,1.70
2018-08-14T12:48:56.602Z,1.40
2018-08-14T12:51:25.070Z,1.43
2018-08-14T12:53:53.663Z,1.53
2018-08-14T12:56:22.139Z,1.53
2018-08-14T12:58:50.584Z,1.33
2018-08-14T13:01:19.120Z,1.33
2018-08-14T13:03:47.564Z,1.63
2018-08-14T13:06:16.293Z,1.67
2018-08-14T13:08:44.881Z,1.30
2018-08-14T13:11:13.320Z,1.30
2018-08-14T13:13:41.796Z,1.47
2018-08-14T13:16:10.335Z,1.70
2018-08-14T13:18:38.824Z,1.37
2018-08-14T13:21:07.256Z,1.40
2018-08-14T13:23:35.655Z,1.20
2018-08-14T13:26:04.158Z,1.00
2018-08-14T13:28:32.826Z,1.20
2018-08-14T13:31:01.514Z,1.17
2018-08-14T13:33:29.963Z,1.37
2018-08-14T13:35:58.603Z,1.20
2018-08-14T13:38:27.019Z,1.00
2018-08-14T13:40:55.511Z,1.10
2018-08-14T13:43:23.996Z,1.40
2018-08-14T13:45:52.483Z,1.30
2018-08-14T13:48:21.290Z,1.10
2018-08-14T13:50:49.748Z,1.10
2018-08-14T13:53:18.248Z,1.10
2018-08-14T13:55:46.895Z,1.70
2018-08-14T13:58:15.319Z,1.23
2018-08-14T14:00:43.777Z,1.17
2018-08-14T14:03:12.218Z,1.30
2018-08-14T14:05:40.699Z,1.30
2018-08-14T14:08:09.403Z,1.67
2018-08-14T14:10:38.088Z,1.12
2018-08-14T14:13:06.599Z,1.27
2018-08-14T14:15:35.027Z,0.90
2018-08-14T14:18:03.513Z,1.13
2018-08-14T14:20:32.023Z,1.60
2018-08-14T14:23:01.180Z,1.10
2018-08-14T14:25:29.899Z,0.83
2018-08-14T14:27:58.348Z,0.93
2018-08-14T14:30:27.002Z,1.00
2018-08-14T14:32:55.474Z,1.30
2018-08-14T14:35:23.910Z,0.97
2018-08-14T14:37:52.449Z,1.13
2018-08-14T14:40:24.184Z,1.07
2018-08-14T14:42:54.258Z,1.10
2018-08-14T14:45:22.652Z,1.00
2018-08-14T14:47:51.196Z,1.30
2018-08-14T14:50:19.657Z,2.10
2018-08-14T14:52:48.180Z,1.42
2018-08-14T14:55:19.210Z,1.10
2018-08-14T14:57:47.946Z,1.27
2018-08-14T15:00:22.375Z,1.20
2018-08-14T15:02:54.564Z,1.10
2018-08-14T15:05:23.256Z,0.90
2018-08-14T15:07:52.078Z,1.17
2018-08-14T15:10:21.142Z,0.70
2018-08-14T15:12:49.650Z,0.90
2018-08-14T15:15:18.092Z,0.87
2018-08-14T15:17:47.511Z,0.83
2018-08-14T15:20:19.162Z,1.00
2018-08-14T15:22:48.740Z,0.83
2018-08-14T15:25:18.969Z,0.82
2018-08-14T15:29:04.778Z,1.00
2018-08-14T15:31:34.299Z,0.90
2018-08-14T15:34:03.578Z,0.90
2018-08-14T15:36:33.343Z,0.90
2018-08-14T15:39:03.032Z,0.90
2018-08-14T15:41:31.904Z,0.80
2018-08-14T15:44:00.437Z,1.00
2018-08-14T15:46:28.910Z,0.90
2018-08-14T15:48:57.434Z,1.00
2018-08-14T15:51:25.858Z,0.97
2018-08-14T15:53:54.320Z,0.70
2018-08-14T15:56:23.319Z,0.77
2018-08-14T15:58:52.073Z,0.90
2018-08-14T16:01:20.596Z,0.90
2018-08-14T16:03:49.115Z,1.17
2018-08-14T16:06:17.637Z,1.00
2018-08-14T16:08:46.165Z,1.17
2018-08-14T16:11:14.576Z,0.83
2018-08-14T16:13:43.112Z,0.90
2018-08-14T16:16:11.602Z,0.80
2018-08-14T16:18:40.080Z,1.10
2018-08-14T16:21:09.151Z,0.90
2018-08-14T16:23:37.675Z,0.97
2018-08-14T16:26:06.527Z,1.23
2018-08-14T16:28:35.225Z,1.30
2018-08-14T16:31:04.139Z,1.10
2018-08-14T16:33:33.560Z,0.90
2018-08-14T16:36:02.012Z,1.07
2018-08-14T16:38:30.470Z,1.10
2018-08-14T16:40:59.050Z,0.93
2018-08-14T16:43:27.563Z,1.00
2018-08-14T16:45:56.039Z,0.97
2018-08-14T16:48:24.539Z,0.87
2018-08-14T16:50:53.070Z,1.10
2018-08-14T16:53:21.560Z,0.97
2018-08-14T16:55:50.211Z,1.13
2018-08-14T16:58:18.652Z,1.03
2018-08-14T17:00:47.115Z,1.43
2018-08-14T17:03:15.559Z,0.80
2018-08-14T17:05:59.909Z,1.13
2018-08-14T17:08:29.210Z,1.00
2018-08-14T17:10:57.871Z,0.97
2018-08-14T17:13:26.892Z,1.10
2018-08-14T17:15:55.692Z,1.07
2018-08-14T17:18:24.135Z,1.23
2018-08-14T17:20:51.394Z,1.20
2018-08-14T17:23:19.870Z,0.80
2018-08-14T17:25:48.420Z,1.70
2018-08-14T17:28:16.875Z,1.20
2018-08-14T17:30:45.439Z,0.98
2018-08-14T17:33:13.887Z,0.97
2018-08-14T17:35:42.349Z,0.90
2018-08-14T17:38:10.794Z,1.30
2018-08-14T17:40:39.335Z,0.90
2018-08-14T17:43:08.025Z,0.80
2018-08-14T17:45:36.568Z,1.00
2018-08-14T17:48:05.747Z,0.80
2018-08-14T17:50:34.663Z,1.00
2018-08-14T17:53:03.117Z,0.93
2018-08-14T17:55:31.644Z,0.80
2018-08-14T17:58:00.679Z,0.97
2018-08-14T18:00:32.366Z,1.00
2018-08-14T18:03:04.748Z,1.20
2018-08-14T18:05:33.295Z,1.00
2018-08-14T18:08:01.824Z,0.90
2018-08-14T18:10:30.367Z,1.00
2018-08-14T18:12:59.111Z,1.47
2018-08-14T18:15:27.958Z,1.75
2018-08-14T18:17:56.604Z,1.50
2018-08-14T18:20:26.118Z,1.17
2018-08-14T18:22:54.846Z,1.10
2018-08-14T18:25:24.429Z,1.57
2018-08-14T18:27:53.416Z,1.40
2018-08-14T18:30:22.895Z,1.67
2018-08-14T18:32:51.744Z,1.73
2018-08-14T18:35:21.650Z,1.20
2018-08-14T18:37:50.885Z,1.53
2018-08-14T18:40:21.763Z,1.20
2018-08-14T18:42:50.750Z,1.07
2018-08-14T18:45:20.599Z,2.10
2018-08-14T18:47:49.156Z,1.70
2018-08-14T18:50:18.315Z,1.53
2018-08-14T18:52:46.800Z,1.17
2018-08-14T18:55:16.659Z,1.40
2018-08-14T18:57:46.582Z,1.27
2018-08-14T19:00:19.696Z,1.40
2018-08-14T19:02:49.515Z,1.20
2018-08-14T19:05:18.050Z,1.47
2018-08-14T19:07:46.688Z,1.67
2018-08-14T19:10:16.364Z,1.80
2018-08-14T19:12:45.775Z,1.80
2018-08-14T19:15:19.349Z,1.83
2018-08-14T19:17:47.822Z,1.57
2018-08-14T19:20:16.327Z,1.70
2018-08-14T19:22:44.927Z,1.53
2018-08-14T19:25:13.368Z,2.47
2018-08-14T19:27:42.817Z,1.87
2018-08-14T19:30:13.034Z,1.60
2018-08-14T19:32:42.057Z,1.57
2018-08-14T19:35:12.837Z,2.37
2018-08-14T19:37:41.398Z,1.93
2018-08-14T19:40:15.581Z,1.90
2018-08-14T19:42:44.364Z,2.03
2018-08-14T19:45:12.847Z,12.17
2018-08-14T19:47:41.503Z,2.20
2018-08-14T19:50:11.477Z,1.37
2018-08-14T19:52:40.073Z,1.80
2018-08-14T19:55:11.760Z,1.87
2018-08-14T19:57:41.278Z,1.83
2018-08-14T20:00:11.893Z,1.50
2018-08-14T20:02:41.105Z,1.80
2018-08-14T20:05:11.472Z,1.70
2018-08-14T20:07:39.910Z,1.70
2018-08-14T20:10:10.415Z,2.43
2018-08-14T20:12:38.946Z,1.73
2018-08-14T20:15:09.699Z,2.00
2018-08-14T20:17:38.296Z,1.60
2018-08-14T20:20:09.338Z,2.03
2018-08-14T20:22:37.771Z,1.40
2018-08-14T20:25:06.407Z,1.90
2018-08-14T20:27:34.894Z,1.70
2018-08-14T20:30:03.802Z,1.80
2018-08-14T20:32:32.218Z,2.00
2018-08-14T20:35:00.663Z,2.07
2018-08-14T20:37:29.103Z,1.72
2018-08-14T20:39:57.655Z,1.40
2018-08-14T20:42:26.107Z,1.65
2018-08-14T20:44:54.645Z,1.90
2018-08-14T20:47:23.107Z,1.77
2018-08-14T20:49:51.531Z,1.67
2018-08-14T20:52:20.051Z,1.80
2018-08-14T20:54:48.473Z,1.70
2018-08-14T20:57:16.953Z,1.23
2018-08-14T20:59:45.363Z,1.60
2018-08-14T21:02:13.823Z,1.13
2018-08-14T21:04:42.296Z,1.40
2018-08-14T21:07:10.786Z,1.50
2018-08-14T21:09:39.287Z,1.40
2018-08-14T21:12:07.793Z,2.27
2018-08-14T21:14:36.251Z,1.03
2018-08-14T21:17:04.707Z,1.43
2018-08-14T21:19:33.116Z,1.40
2018-08-14T21:22:01.587Z,1.00
2018-08-14T21:24:30.202Z,0.80
2018-08-14T21:26:58.623Z,2.27
2018-08-14T21:29:27.285Z,1.30
2018-08-14T21:31:55.723Z,0.93
2018-08-14T21:34:24.196Z,1.33
2018-08-14T21:36:52.647Z,1.40
2018-08-14T21:39:21.199Z,1.47
2018-08-14T21:41:49.659Z,1.30
2018-08-14T21:44:18.109Z,1.22
2018-08-14T21:46:46.547Z,1.10
2018-08-14T21:49:15.030Z,1.97
2018-08-14T21:51:43.466Z,1.00
2018-08-14T21:54:11.893Z,1.30
2018-08-14T21:56:40.365Z,1.22
2018-08-14T21:59:08.741Z,1.10
2018-08-14T22:01:37.211Z,1.53
2018-08-14T22:04:05.744Z,1.50
2018-08-14T22:06:34.226Z,1.00
2018-08-14T22:09:02.704Z,1.47
2018-08-14T22:11:31.541Z,1.10
2018-08-14T22:14:00.036Z,1.10
2018-08-14T22:16:28.463Z,1.50
2018-08-14T22:21:55.891Z,1.50
2018-08-14T22:24:24.395Z,1.20
2018-08-14T22:26:52.873Z,1.60
2018-08-14T22:29:21.472Z,1.00
2018-08-14T22:31:49.923Z,1.43
2018-08-14T22:34:18.339Z,1.00
2018-08-14T22:36:46.782Z,1.30
2018-08-14T22:39:15.216Z,1.57
2018-08-14T22:41:43.672Z,1.07
2018-08-14T22:44:12.232Z,1.60
2018-08-14T22:46:40.700Z,1.20
2018-08-14T22:49:09.452Z,1.27
2018-08-14T22:51:37.912Z,1.50
2018-08-14T22:54:06.448Z,1.20
2018-08-14T22:56:34.971Z,1.17
2018-08-14T22:59:03.855Z,1.20
2018-08-14T23:01:32.385Z,1.30
2018-08-14T23:04:00.823Z,1.33
2018-08-14T23:06:29.331Z,1.43
2018-08-14T23:08:57.767Z,1.30
2018-08-14T23:11:26.362Z,1.63
2018-08-14T23:13:54.844Z,1.50
2018-08-14T23:16:23.298Z,1.20
2018-08-14T23:18:51.775Z,1.55
2018-08-14T23:21:20.219Z,1.17
2018-08-14T23:23:48.639Z,1.10
2018-08-14T23:26:17.149Z,1.10
2018-08-14T23:28:45.530Z,1.30
2018-08-14T23:31:14.025Z,1.60
2018-08-14T23:33:42.467Z,1.33
2018-08-14T23:36:10.889Z,1.43
2018-08-14T23:38:39.383Z,1.50
2018-08-14T23:41:07.836Z,1.93
2018-08-14T23:43:36.296Z,1.50
2018-08-14T23:46:05.162Z,2.17
2018-08-14T23:48:33.658Z,1.30
2018-08-14T23:51:02.128Z,1.80
2018-08-14T23:53:30.541Z,1.50
2018-08-14T23:55:59.232Z,1.30
2018-08-14T23:58:27.690Z,1.40
